createdAt,value
2023-03-29T00:00:25.344Z,1.27
2023-03-29T00:01:35.652Z,1.03
2023-03-29T00:02:26.549Z,1.02
2023-03-29T00:03:25.397Z,0.95
2023-03-29T00:04:25.306Z,0.78
2023-03-29T00:05:25.307Z,0.84
2023-03-29T00:06:25.281Z,0.69
2023-03-29T00:07:25.268Z,0.77
2023-03-29T00:08:25.257Z,1.17
2023-03-29T00:09:25.276Z,0.95
2023-03-29T00:10:25.282Z,0.64
2023-03-29T00:11:25.325Z,0.70
2023-03-29T00:12:25.384Z,1.02
2023-03-29T00:13:25.440Z,1.03
2023-03-29T00:14:25.503Z,1.19
2023-03-29T00:15:25.564Z,0.99
2023-03-29T00:16:25.676Z,0.97
2023-03-29T00:17:25.723Z,1.10
2023-03-29T00:18:25.730Z,0.89
2023-03-29T00:19:25.794Z,1.00
2023-03-29T00:20:25.852Z,1.08
2023-03-29T00:21:25.903Z,1.11
2023-03-29T00:22:25.970Z,0.88
2023-03-29T00:23:26.010Z,0.56
2023-03-29T00:24:26.118Z,0.79
2023-03-29T00:25:26.916Z,0.98
2023-03-29T00:26:26.200Z,0.89
2023-03-29T00:27:26.253Z,1.09
2023-03-29T00:28:26.311Z,0.86
2023-03-29T00:29:26.354Z,0.78
2023-03-29T00:30:26.405Z,0.96
2023-03-29T00:31:26.527Z,0.78
2023-03-29T00:32:26.951Z,1.02
2023-03-29T00:33:26.539Z,0.85
2023-03-29T00:34:26.592Z,0.92
2023-03-29T00:35:26.683Z,1.21
2023-03-29T00:36:26.686Z,0.83
2023-03-29T00:37:26.824Z,1.21
2023-03-29T00:38:26.820Z,1.13
2023-03-29T00:39:26.876Z,1.31
2023-03-29T00:40:26.935Z,0.94
2023-03-29T00:41:26.998Z,0.85
2023-03-29T00:42:27.063Z,1.03
2023-03-29T00:43:27.145Z,0.84
2023-03-29T00:44:27.176Z,1.11
2023-03-29T00:45:27.240Z,1.04
2023-03-29T00:46:27.333Z,0.81
2023-03-29T00:47:27.410Z,1.35
2023-03-29T00:48:27.434Z,1.09
2023-03-29T00:49:27.494Z,0.86
2023-03-29T00:50:27.551Z,0.87
2023-03-29T00:51:27.612Z,0.84
2023-03-29T00:52:27.673Z,0.88
2023-03-29T00:53:27.723Z,0.97
2023-03-29T00:54:27.777Z,0.90
2023-03-29T00:55:27.854Z,1.01
2023-03-29T00:56:27.905Z,1.07
2023-03-29T00:57:28.032Z,0.73
2023-03-29T00:58:28.062Z,0.89
2023-03-29T00:59:28.088Z,0.85
2023-03-29T01:00:28.157Z,0.94
2023-03-29T01:01:28.348Z,0.81
2023-03-29T01:02:28.311Z,0.83
2023-03-29T01:03:28.954Z,0.87
2023-03-29T01:04:28.478Z,1.04
2023-03-29T01:05:28.456Z,0.88
2023-03-29T01:06:28.526Z,0.83
2023-03-29T01:07:28.589Z,0.95
2023-03-29T01:08:28.642Z,0.83
2023-03-29T01:09:28.681Z,1.07
2023-03-29T01:10:28.755Z,0.73
2023-03-29T01:11:28.795Z,0.74
2023-03-29T01:12:28.815Z,1.04
2023-03-29T01:13:28.858Z,0.94
2023-03-29T01:14:28.904Z,1.17
2023-03-29T01:15:29.060Z,0.56
2023-03-29T01:16:29.068Z,0.76
2023-03-29T01:17:29.072Z,0.88
2023-03-29T01:18:29.140Z,1.05
2023-03-29T01:19:29.189Z,0.78
2023-03-29T01:20:29.243Z,0.84
2023-03-29T01:21:29.326Z,1.02
2023-03-29T01:22:29.359Z,0.92
2023-03-29T01:23:29.417Z,0.80
2023-03-29T01:24:29.485Z,0.88
2023-03-29T01:25:29.591Z,0.89
2023-03-29T01:26:29.594Z,1.00
2023-03-29T01:27:29.665Z,1.03
2023-03-29T01:28:29.730Z,0.93
2023-03-29T01:29:29.867Z,0.84
2023-03-29T01:30:29.853Z,1.09
2023-03-29T01:31:29.941Z,1.00
2023-03-29T01:32:30.006Z,0.95
2023-03-29T01:33:30.036Z,0.92
2023-03-29T01:34:30.088Z,1.06
2023-03-29T01:35:30.158Z,0.95
2023-03-29T01:36:30.277Z,0.88
2023-03-29T01:37:30.269Z,0.96
2023-03-29T01:38:30.336Z,0.87
2023-03-29T01:39:30.437Z,0.99
2023-03-29T01:40:30.472Z,0.94
2023-03-29T01:41:30.539Z,0.83
2023-03-29T01:42:30.573Z,1.00
2023-03-29T01:43:30.615Z,0.79
2023-03-29T01:44:30.696Z,0.84
2023-03-29T01:45:30.746Z,0.76
2023-03-29T01:46:30.846Z,0.90
2023-03-29T01:47:30.887Z,0.69
2023-03-29T01:48:30.929Z,0.88
2023-03-29T01:49:30.989Z,0.77
2023-03-29T01:50:31.062Z,0.92
2023-03-29T01:51:31.988Z,1.12
2023-03-29T01:52:31.164Z,0.81
2023-03-29T01:53:31.220Z,0.65
2023-03-29T01:54:31.286Z,1.12
2023-03-29T01:55:31.337Z,1.07
2023-03-29T01:56:31.386Z,0.83
2023-03-29T01:57:31.460Z,0.70
2023-03-29T01:58:31.505Z,0.97
2023-03-29T01:59:31.566Z,0.84
2023-03-29T02:00:31.631Z,0.95
2023-03-29T02:01:32.650Z,0.93
2023-03-29T02:02:31.880Z,1.08
2023-03-29T02:03:31.879Z,0.83
2023-03-29T02:04:31.869Z,0.88
2023-03-29T02:05:31.938Z,0.95
2023-03-29T02:06:31.995Z,0.73
2023-03-29T02:07:32.049Z,1.00
2023-03-29T02:08:32.124Z,0.88
2023-03-29T02:09:32.196Z,0.67
2023-03-29T02:10:32.228Z,0.87
2023-03-29T02:11:32.287Z,1.06
2023-03-29T02:12:32.356Z,0.76
2023-03-29T02:13:32.409Z,0.92
2023-03-29T02:14:32.460Z,0.72
2023-03-29T02:15:32.548Z,0.82
2023-03-29T02:16:32.578Z,0.83
2023-03-29T02:17:32.671Z,0.94
2023-03-29T02:18:32.699Z,1.03
2023-03-29T02:19:32.965Z,0.96
2023-03-29T02:20:32.814Z,0.88
2023-03-29T02:21:32.868Z,0.99
2023-03-29T02:22:32.932Z,0.78
2023-03-29T02:23:33.006Z,0.96
2023-03-29T02:24:33.096Z,0.94
2023-03-29T02:25:33.101Z,0.69
2023-03-29T02:26:33.157Z,1.00
2023-03-29T02:27:33.218Z,0.81
2023-03-29T02:28:33.299Z,0.75
2023-03-29T02:29:33.342Z,0.84
2023-03-29T02:30:33.408Z,0.81
2023-03-29T02:31:33.492Z,0.73
2023-03-29T02:32:33.557Z,0.82
2023-03-29T02:33:33.584Z,0.84
2023-03-29T02:34:33.639Z,1.09
2023-03-29T02:35:33.718Z,1.30
2023-03-29T02:36:33.768Z,0.85
2023-03-29T02:37:33.807Z,0.65
2023-03-29T02:38:33.888Z,0.95
2023-03-29T02:39:33.917Z,1.00
2023-03-29T02:40:34.000Z,1.02
2023-03-29T02:41:34.049Z,0.87
2023-03-29T02:42:34.094Z,0.76
2023-03-29T02:43:34.215Z,0.83
2023-03-29T02:44:34.225Z,1.01
2023-03-29T02:45:34.292Z,0.89
2023-03-29T02:46:34.524Z,0.58
2023-03-29T02:47:34.409Z,0.87
2023-03-29T02:48:34.473Z,0.71
2023-03-29T02:49:34.524Z,0.81
2023-03-29T02:50:34.581Z,1.06
2023-03-29T02:51:34.644Z,0.85
2023-03-29T02:52:35.463Z,1.08
2023-03-29T02:53:34.762Z,0.94
2023-03-29T02:54:34.820Z,0.61
2023-03-29T02:55:34.980Z,0.78
2023-03-29T02:56:34.932Z,0.60
2023-03-29T02:57:35.055Z,0.63
2023-03-29T02:58:35.060Z,1.17
2023-03-29T02:59:35.120Z,0.87
2023-03-29T03:00:35.170Z,0.73
2023-03-29T03:01:35.291Z,0.94
2023-03-29T03:02:35.384Z,0.78
2023-03-29T03:03:35.425Z,0.79
2023-03-29T03:04:35.367Z,0.76
2023-03-29T03:05:35.424Z,0.65
2023-03-29T03:06:35.470Z,0.73
2023-03-29T03:07:35.511Z,0.72
2023-03-29T03:08:35.560Z,0.95
2023-03-29T03:09:35.596Z,0.74
2023-03-29T03:10:35.656Z,0.77
2023-03-29T03:11:35.680Z,0.86
2023-03-29T03:12:35.719Z,0.74
2023-03-29T03:13:35.771Z,0.82
2023-03-29T03:14:35.812Z,0.80
2023-03-29T03:15:35.919Z,1.03
2023-03-29T03:16:35.911Z,1.03
2023-03-29T03:17:35.954Z,0.72
2023-03-29T03:18:35.939Z,0.81
2023-03-29T03:19:35.961Z,0.75
2023-03-29T03:20:36.981Z,0.60
2023-03-29T03:21:36.024Z,0.90
2023-03-29T03:22:36.059Z,0.76
2023-03-29T03:23:36.088Z,0.84
2023-03-29T03:24:36.111Z,0.73
2023-03-29T03:25:36.139Z,0.87
2023-03-29T03:26:36.157Z,0.80
2023-03-29T03:27:36.182Z,0.70
2023-03-29T03:28:36.210Z,0.79
2023-03-29T03:29:36.240Z,0.50
2023-03-29T03:30:36.984Z,0.64
2023-03-29T03:31:36.343Z,0.96
2023-03-29T03:32:36.364Z,0.95
2023-03-29T03:33:36.321Z,0.76
2023-03-29T03:34:36.342Z,0.78
2023-03-29T03:35:36.375Z,0.79
2023-03-29T03:36:36.500Z,0.56
2023-03-29T03:37:36.406Z,0.91
2023-03-29T03:38:36.427Z,1.12
2023-03-29T03:39:36.433Z,0.79
2023-03-29T03:40:36.441Z,0.93
2023-03-29T03:41:36.517Z,0.75
2023-03-29T03:42:36.464Z,0.91
2023-03-29T03:43:36.487Z,0.71
2023-03-29T03:44:36.487Z,0.60
2023-03-29T03:45:36.526Z,0.71
2023-03-29T03:46:36.505Z,0.74
2023-03-29T03:47:36.516Z,0.96
2023-03-29T03:48:36.525Z,0.74
2023-03-29T03:49:36.526Z,0.88
2023-03-29T03:50:36.536Z,0.62
2023-03-29T03:51:36.539Z,0.85
2023-03-29T03:52:36.540Z,0.93
2023-03-29T03:53:36.560Z,0.67
2023-03-29T03:54:36.559Z,0.66
2023-03-29T03:55:36.564Z,0.73
2023-03-29T03:56:36.561Z,0.75
2023-03-29T03:57:36.994Z,0.81
2023-03-29T03:58:36.574Z,0.98
2023-03-29T03:59:36.569Z,0.67
2023-03-29T04:00:36.580Z,0.78
2023-03-29T04:01:36.576Z,0.69
2023-03-29T04:02:36.727Z,0.99
2023-03-29T04:03:36.702Z,0.78
2023-03-29T04:04:36.652Z,0.81
2023-03-29T04:05:36.618Z,0.71
2023-03-29T04:06:36.629Z,0.72
2023-03-29T04:07:36.633Z,0.78
2023-03-29T04:08:36.649Z,0.72
2023-03-29T04:09:36.659Z,0.93
2023-03-29T04:10:36.661Z,0.66
2023-03-29T04:11:36.678Z,0.70
2023-03-29T04:12:36.684Z,0.88
2023-03-29T04:13:36.697Z,0.70
2023-03-29T04:14:36.707Z,0.74
2023-03-29T04:15:36.718Z,0.87
2023-03-29T04:16:36.722Z,0.94
2023-03-29T04:17:36.811Z,0.64
2023-03-29T04:18:36.822Z,0.79
2023-03-29T04:19:36.749Z,0.60
2023-03-29T04:20:36.761Z,0.65
2023-03-29T04:21:36.777Z,0.68
2023-03-29T04:22:36.780Z,0.91
2023-03-29T04:23:36.805Z,0.95
2023-03-29T04:24:36.805Z,0.77
2023-03-29T04:25:36.815Z,0.89
2023-03-29T04:26:36.848Z,0.79
2023-03-29T04:27:36.871Z,0.87
2023-03-29T04:28:36.898Z,0.66
2023-03-29T04:29:37.011Z,0.83
2023-03-29T04:30:36.902Z,0.67
2023-03-29T04:31:36.943Z,0.95
2023-03-29T04:32:36.949Z,0.86
2023-03-29T04:33:36.998Z,0.74
2023-03-29T04:34:36.954Z,0.49
2023-03-29T04:35:37.031Z,0.74
2023-03-29T04:36:36.984Z,0.71
2023-03-29T04:37:36.997Z,0.87
2023-03-29T04:38:37.010Z,0.72
2023-03-29T04:39:37.023Z,0.77
2023-03-29T04:40:37.042Z,0.95
2023-03-29T04:41:37.056Z,1.14
2023-03-29T04:42:37.075Z,0.61
2023-03-29T04:43:39.725Z,0.98
2023-03-29T04:44:37.125Z,0.73
2023-03-29T04:45:37.075Z,0.58
2023-03-29T04:46:37.159Z,0.68
2023-03-29T04:47:37.064Z,0.61
2023-03-29T04:48:37.065Z,0.60
2023-03-29T04:49:37.045Z,0.78
2023-03-29T04:50:37.042Z,0.78
2023-03-29T04:51:37.046Z,0.75
2023-03-29T04:52:37.032Z,0.82
2023-03-29T04:53:37.014Z,0.79
2023-03-29T04:54:37.009Z,0.79
2023-03-29T04:55:37.003Z,0.79
2023-03-29T04:56:36.993Z,0.74
2023-03-29T04:57:37.053Z,0.75
2023-03-29T04:58:36.984Z,0.56
2023-03-29T04:59:36.983Z,0.73
2023-03-29T05:00:36.974Z,0.82
2023-03-29T05:01:37.055Z,0.70
2023-03-29T05:02:37.001Z,0.71
2023-03-29T05:03:36.952Z,0.79
2023-03-29T05:04:36.985Z,0.68
2023-03-29T05:05:36.937Z,0.71
2023-03-29T05:06:37.011Z,0.90
2023-03-29T05:07:36.926Z,0.59
2023-03-29T05:08:36.917Z,0.73
2023-03-29T05:09:36.914Z,0.77
2023-03-29T05:10:36.905Z,0.77
2023-03-29T05:11:36.902Z,1.00
2023-03-29T05:12:36.943Z,0.95
2023-03-29T05:13:36.895Z,0.87
2023-03-29T05:14:36.877Z,0.75
2023-03-29T05:15:37.162Z,0.84
2023-03-29T05:16:36.893Z,1.12
2023-03-29T05:17:36.875Z,0.89
2023-03-29T05:18:36.850Z,0.77
2023-03-29T05:19:36.840Z,0.76
2023-03-29T05:20:36.837Z,0.56
2023-03-29T05:21:36.904Z,0.63
2023-03-29T05:22:36.811Z,0.68
2023-03-29T05:23:36.809Z,0.57
2023-03-29T05:24:36.809Z,1.03
2023-03-29T05:25:36.791Z,0.78
2023-03-29T05:26:36.795Z,0.84
2023-03-29T05:27:36.784Z,0.91
2023-03-29T05:28:36.769Z,1.06
2023-03-29T05:29:36.798Z,0.92
2023-03-29T05:30:36.764Z,0.77
2023-03-29T05:31:36.801Z,0.72
2023-03-29T05:32:36.881Z,0.92
2023-03-29T05:33:36.755Z,0.87
2023-03-29T05:34:36.735Z,0.58
2023-03-29T05:35:36.737Z,0.98
2023-03-29T05:36:36.716Z,1.20
2023-03-29T05:37:36.708Z,0.83
2023-03-29T05:38:36.735Z,1.16
2023-03-29T05:39:37.864Z,1.03
2023-03-29T05:40:36.692Z,0.67
2023-03-29T05:41:36.689Z,0.73
2023-03-29T05:42:36.734Z,0.89
2023-03-29T05:43:36.674Z,1.05
2023-03-29T05:44:36.680Z,1.23
2023-03-29T05:45:36.709Z,0.99
2023-03-29T05:46:36.708Z,0.90
2023-03-29T05:47:36.755Z,1.13
2023-03-29T05:48:36.719Z,0.90
2023-03-29T05:49:36.722Z,0.95
2023-03-29T05:50:36.755Z,1.02
2023-03-29T05:51:36.820Z,1.02
2023-03-29T05:52:36.862Z,1.32
2023-03-29T05:53:36.916Z,0.88
2023-03-29T05:54:36.979Z,1.05
2023-03-29T05:55:37.042Z,1.35
2023-03-29T05:56:37.065Z,0.81
2023-03-29T05:57:37.072Z,0.80
2023-03-29T05:58:37.073Z,0.91
2023-03-29T05:59:37.207Z,0.82
2023-03-29T06:00:37.079Z,0.93
2023-03-29T06:01:37.082Z,1.03
2023-03-29T06:02:37.180Z,0.91
2023-03-29T06:03:37.351Z,0.83
2023-03-29T06:04:37.391Z,0.79
2023-03-29T06:05:37.393Z,1.08
2023-03-29T06:06:38.041Z,0.95
2023-03-29T06:07:37.373Z,1.16
2023-03-29T06:08:37.403Z,0.93
2023-03-29T06:09:37.434Z,1.17
2023-03-29T06:10:37.471Z,1.06
2023-03-29T06:11:37.498Z,1.08
2023-03-29T06:12:37.645Z,1.01
2023-03-29T06:13:37.534Z,1.26
2023-03-29T06:14:38.054Z,1.12
2023-03-29T06:15:37.550Z,2.38
2023-03-29T06:16:37.694Z,0.99
2023-03-29T06:17:37.684Z,1.15
2023-03-29T06:18:37.584Z,0.95
2023-03-29T06:19:37.584Z,1.02
2023-03-29T06:20:37.588Z,0.98
2023-03-29T06:21:37.587Z,1.29
2023-03-29T06:22:37.590Z,1.36
2023-03-29T06:23:37.622Z,1.46
2023-03-29T06:24:37.611Z,1.30
2023-03-29T06:25:37.623Z,1.23
2023-03-29T06:26:37.646Z,1.06
2023-03-29T06:27:37.681Z,0.88
2023-03-29T06:28:37.699Z,1.38
2023-03-29T06:29:37.767Z,1.35
2023-03-29T06:30:37.773Z,1.19
2023-03-29T06:31:37.907Z,1.23
2023-03-29T06:32:37.889Z,1.19
2023-03-29T06:33:37.860Z,0.89
2023-03-29T06:34:38.666Z,0.93
2023-03-29T06:35:38.488Z,1.25
2023-03-29T06:36:38.891Z,0.98
2023-03-29T06:37:37.893Z,1.56
2023-03-29T06:38:39.907Z,1.16
2023-03-29T06:39:37.880Z,1.09
2023-03-29T06:40:37.900Z,1.09
2023-03-29T06:41:37.866Z,0.86
2023-03-29T06:42:37.866Z,1.34
2023-03-29T06:43:38.725Z,1.44
2023-03-29T06:44:37.838Z,0.94
2023-03-29T06:45:37.849Z,1.07
2023-03-29T06:46:37.883Z,1.14
2023-03-29T06:47:37.830Z,1.44
2023-03-29T06:48:37.817Z,1.07
2023-03-29T06:49:37.816Z,1.22
2023-03-29T06:50:37.806Z,0.97
2023-03-29T06:51:37.805Z,1.26
2023-03-29T06:52:37.794Z,1.26
2023-03-29T06:53:37.797Z,0.89
2023-03-29T06:54:38.564Z,1.03
2023-03-29T06:55:37.828Z,0.88
2023-03-29T06:56:37.897Z,1.04
2023-03-29T06:57:37.906Z,1.07
2023-03-29T06:58:37.879Z,1.10
2023-03-29T06:59:37.883Z,1.32
2023-03-29T07:00:37.972Z,1.01
2023-03-29T07:01:37.957Z,1.07
2023-03-29T07:02:37.945Z,1.12
2023-03-29T07:03:37.950Z,0.96
2023-03-29T07:04:38.022Z,1.19
2023-03-29T07:05:37.974Z,1.18
2023-03-29T07:06:37.995Z,1.51
2023-03-29T07:07:38.081Z,1.61
2023-03-29T07:08:38.022Z,1.02
2023-03-29T07:09:38.044Z,1.39
2023-03-29T07:10:38.060Z,0.99
2023-03-29T07:11:38.087Z,1.18
2023-03-29T07:12:38.103Z,1.41
2023-03-29T07:13:38.111Z,1.43
2023-03-29T07:14:38.139Z,1.08
2023-03-29T07:15:38.135Z,1.13
2023-03-29T07:16:38.278Z,1.32
2023-03-29T07:17:38.267Z,1.42
2023-03-29T07:18:38.455Z,1.58
2023-03-29T07:19:38.327Z,1.40
2023-03-29T07:20:38.281Z,1.31
2023-03-29T07:21:38.295Z,1.34
2023-03-29T07:22:38.328Z,1.47
2023-03-29T07:23:38.369Z,1.14
2023-03-29T07:24:38.396Z,1.33
2023-03-29T07:25:38.425Z,1.51
2023-03-29T07:26:39.307Z,0.98
2023-03-29T07:27:38.427Z,1.37
2023-03-29T07:28:38.441Z,1.07
2023-03-29T07:29:38.435Z,1.06
2023-03-29T07:30:38.454Z,1.30
2023-03-29T07:31:38.442Z,1.01
2023-03-29T07:32:38.658Z,0.96
2023-03-29T07:33:38.558Z,1.28
2023-03-29T07:34:38.560Z,1.72
2023-03-29T07:35:38.605Z,1.23
2023-03-29T07:36:38.647Z,1.22
2023-03-29T07:37:38.698Z,1.41
2023-03-29T07:38:38.751Z,1.79
2023-03-29T07:39:38.852Z,1.51
2023-03-29T07:40:38.849Z,1.17
2023-03-29T07:41:38.898Z,1.37
2023-03-29T07:42:38.950Z,1.34
2023-03-29T07:43:38.992Z,1.72
2023-03-29T07:44:39.049Z,1.35
2023-03-29T07:45:40.145Z,1.24
2023-03-29T07:46:39.164Z,1.37
2023-03-29T07:47:39.228Z,1.14
2023-03-29T07:48:39.218Z,1.45
2023-03-29T07:49:39.262Z,1.13
2023-03-29T07:50:40.083Z,1.13
2023-03-29T07:51:40.081Z,1.45
2023-03-29T07:52:39.369Z,1.17
2023-03-29T07:53:39.407Z,1.21
2023-03-29T07:54:39.446Z,1.47
2023-03-29T07:55:39.461Z,1.06
2023-03-29T07:56:39.548Z,1.11
2023-03-29T07:57:39.522Z,1.14
2023-03-29T07:58:39.550Z,1.27
2023-03-29T07:59:40.094Z,1.34
2023-03-29T08:00:39.716Z,1.16
2023-03-29T08:01:39.642Z,1.16
2023-03-29T08:02:39.744Z,0.94
2023-03-29T08:03:39.719Z,1.08
2023-03-29T08:04:39.778Z,1.31
2023-03-29T08:05:41.702Z,1.46
2023-03-29T08:06:39.793Z,1.26
2023-03-29T08:07:39.827Z,1.12
2023-03-29T08:08:39.844Z,1.14
2023-03-29T08:09:39.848Z,1.27
2023-03-29T08:10:39.870Z,1.41
2023-03-29T08:11:39.906Z,1.19
2023-03-29T08:12:40.101Z,1.69
2023-03-29T08:13:39.950Z,1.36
2023-03-29T08:14:39.996Z,1.73
2023-03-29T08:15:40.125Z,1.36
2023-03-29T08:16:40.126Z,1.73
2023-03-29T08:17:40.165Z,1.51
2023-03-29T08:18:40.180Z,1.47
2023-03-29T08:19:40.209Z,2.01
2023-03-29T08:20:41.207Z,1.66
2023-03-29T08:21:40.209Z,1.67
2023-03-29T08:22:40.206Z,1.70
2023-03-29T08:23:40.183Z,1.24
2023-03-29T08:24:40.177Z,1.65
2023-03-29T08:25:40.179Z,1.86
2023-03-29T08:26:40.160Z,2.08
2023-03-29T08:27:41.097Z,2.20
2023-03-29T08:28:40.156Z,1.85
2023-03-29T08:29:40.144Z,1.68
2023-03-29T08:30:40.202Z,2.00
2023-03-29T08:31:40.205Z,2.37
2023-03-29T08:32:40.173Z,1.90
2023-03-29T08:33:40.609Z,1.76
2023-03-29T08:34:40.211Z,2.51
2023-03-29T08:35:40.362Z,1.79
2023-03-29T08:36:40.316Z,1.59
2023-03-29T08:37:40.341Z,2.20
2023-03-29T08:38:40.357Z,1.62
2023-03-29T08:39:40.380Z,1.56
2023-03-29T08:40:40.407Z,1.79
2023-03-29T08:41:40.418Z,1.31
2023-03-29T08:42:40.475Z,1.76
2023-03-29T08:43:40.440Z,1.77
2023-03-29T08:44:40.436Z,2.33
2023-03-29T08:45:40.432Z,1.89
2023-03-29T08:46:40.698Z,1.78
2023-03-29T08:47:40.433Z,1.44
2023-03-29T08:48:40.408Z,2.76
2023-03-29T08:49:40.460Z,2.64
2023-03-29T08:50:40.426Z,2.56
2023-03-29T08:51:40.400Z,2.75
2023-03-29T08:52:40.384Z,2.64
2023-03-29T08:53:40.371Z,2.84
2023-03-29T08:54:40.378Z,3.00
2023-03-29T08:55:40.366Z,3.11
2023-03-29T08:56:41.146Z,2.39
2023-03-29T08:57:40.356Z,3.63
2023-03-29T08:58:40.359Z,2.99
2023-03-29T08:59:40.332Z,2.57
2023-03-29T09:00:40.330Z,2.85
2023-03-29T09:01:40.427Z,2.77
2023-03-29T09:02:40.373Z,3.12
2023-03-29T09:03:40.358Z,3.16
2023-03-29T09:04:40.360Z,3.07
2023-03-29T09:05:40.423Z,2.53
2023-03-29T09:06:40.501Z,2.52
2023-03-29T09:07:40.540Z,2.70
2023-03-29T09:08:40.612Z,3.51
2023-03-29T09:09:40.698Z,3.06
2023-03-29T09:10:40.715Z,2.81
2023-03-29T09:11:40.771Z,2.92
2023-03-29T09:12:40.820Z,2.89
2023-03-29T09:13:40.879Z,3.16
2023-03-29T09:14:41.615Z,2.40
2023-03-29T09:15:41.017Z,3.32
2023-03-29T09:16:41.130Z,2.70
2023-03-29T09:17:41.126Z,2.45
2023-03-29T09:18:41.118Z,2.98
2023-03-29T09:19:42.133Z,2.87
2023-03-29T09:20:41.212Z,3.40
2023-03-29T09:21:41.259Z,3.09
2023-03-29T09:22:41.309Z,3.32
2023-03-29T09:23:41.348Z,3.14
2023-03-29T09:24:41.410Z,2.84
2023-03-29T09:25:52.595Z,3.24
2023-03-29T09:26:42.467Z,3.18
2023-03-29T09:27:41.453Z,2.90
2023-03-29T09:28:41.466Z,3.42
2023-03-29T09:29:41.447Z,3.03
2023-03-29T09:30:41.481Z,3.03
2023-03-29T09:31:41.468Z,3.34
2023-03-29T09:32:41.490Z,3.13
2023-03-29T09:33:41.411Z,3.44
2023-03-29T09:34:41.444Z,2.75
2023-03-29T09:35:41.443Z,2.88
2023-03-29T09:36:41.402Z,2.94
2023-03-29T09:37:41.390Z,2.87
2023-03-29T09:38:41.387Z,2.79
2023-03-29T09:39:41.384Z,3.53
2023-03-29T09:40:41.377Z,2.89
2023-03-29T09:41:41.371Z,2.87
2023-03-29T09:42:41.382Z,3.14
2023-03-29T09:43:41.407Z,3.13
2023-03-29T09:44:41.418Z,2.92
2023-03-29T09:45:41.453Z,2.90
2023-03-29T09:46:42.414Z,2.99
2023-03-29T09:47:41.474Z,3.34
2023-03-29T09:48:41.383Z,2.97
2023-03-29T09:49:42.129Z,2.88
2023-03-29T09:50:42.127Z,2.92
2023-03-29T09:51:41.370Z,3.24
2023-03-29T09:52:41.358Z,2.82
2023-03-29T09:53:41.365Z,2.81
2023-03-29T09:54:41.352Z,3.11
2023-03-29T09:55:41.343Z,2.77
2023-03-29T09:56:41.370Z,2.69
2023-03-29T09:57:41.322Z,2.85
2023-03-29T09:58:41.325Z,3.01
2023-03-29T09:59:41.314Z,3.19
2023-03-29T10:00:41.310Z,3.11
2023-03-29T10:01:41.335Z,2.83
2023-03-29T10:02:41.334Z,2.29
2023-03-29T10:03:41.294Z,2.65
2023-03-29T10:04:41.419Z,2.76
2023-03-29T10:05:42.143Z,2.64
2023-03-29T10:06:41.351Z,3.56
2023-03-29T10:07:41.265Z,3.64
2023-03-29T10:08:41.263Z,2.75
2023-03-29T10:09:41.284Z,2.34
2023-03-29T10:10:41.248Z,2.63
2023-03-29T10:11:41.244Z,2.98
2023-03-29T10:12:41.248Z,2.53
2023-03-29T10:13:41.272Z,2.72
2023-03-29T10:14:41.303Z,2.58
2023-03-29T10:15:41.330Z,2.52
2023-03-29T10:16:41.397Z,3.10
2023-03-29T10:17:41.368Z,2.69
2023-03-29T10:18:41.419Z,2.21
2023-03-29T10:19:41.413Z,2.32
2023-03-29T10:20:41.445Z,2.27
2023-03-29T10:21:41.474Z,2.79
2023-03-29T10:22:41.506Z,3.03
2023-03-29T10:23:41.538Z,2.64
2023-03-29T10:24:41.560Z,2.46
2023-03-29T10:25:42.599Z,2.62
2023-03-29T10:26:41.602Z,2.84
2023-03-29T10:27:41.629Z,2.83
2023-03-29T10:28:41.649Z,2.64
2023-03-29T10:29:41.677Z,2.37
2023-03-29T10:30:41.720Z,2.97
2023-03-29T10:31:41.796Z,2.43
2023-03-29T10:32:41.888Z,2.54
2023-03-29T10:33:41.783Z,2.50
2023-03-29T10:34:41.797Z,2.20
2023-03-29T10:35:41.978Z,2.35
2023-03-29T10:36:41.839Z,3.36
2023-03-29T10:37:41.853Z,2.43
2023-03-29T10:38:41.886Z,2.43
2023-03-29T10:39:41.904Z,2.42
2023-03-29T10:40:41.924Z,2.76
2023-03-29T10:41:41.946Z,2.77
2023-03-29T10:42:41.978Z,2.11
2023-03-29T10:43:41.994Z,2.30
2023-03-29T10:44:42.020Z,2.33
2023-03-29T10:45:42.782Z,2.58
2023-03-29T10:46:42.147Z,2.25
2023-03-29T10:47:42.110Z,2.51
2023-03-29T10:48:42.121Z,2.50
2023-03-29T10:49:42.166Z,2.57
2023-03-29T10:50:42.189Z,2.60
2023-03-29T10:51:42.245Z,2.59
2023-03-29T10:52:42.263Z,2.19
2023-03-29T10:53:42.255Z,2.30
2023-03-29T10:54:42.343Z,2.77
2023-03-29T10:55:43.149Z,2.87
2023-03-29T10:56:42.412Z,2.18
2023-03-29T10:57:42.350Z,2.54
2023-03-29T10:58:42.386Z,2.62
2023-03-29T10:59:42.409Z,2.28
2023-03-29T11:00:42.680Z,2.65
2023-03-29T11:01:42.549Z,2.17
2023-03-29T11:02:42.574Z,2.41
2023-03-29T11:03:42.580Z,2.25
2023-03-29T11:04:42.550Z,2.79
2023-03-29T11:05:42.583Z,2.51
2023-03-29T11:06:42.611Z,2.50
2023-03-29T11:07:42.635Z,2.39
2023-03-29T11:08:42.669Z,2.16
2023-03-29T11:09:42.715Z,2.35
2023-03-29T11:10:42.738Z,2.55
2023-03-29T11:11:42.765Z,2.47
2023-03-29T11:12:42.784Z,2.27
2023-03-29T11:13:42.867Z,2.21
2023-03-29T11:14:42.853Z,2.59
2023-03-29T11:15:42.915Z,2.47
2023-03-29T11:16:42.909Z,2.44
2023-03-29T11:17:42.970Z,2.32
2023-03-29T11:18:42.990Z,3.23
2023-03-29T11:19:43.018Z,2.60
2023-03-29T11:20:43.060Z,2.22
2023-03-29T11:21:43.094Z,2.36
2023-03-29T11:22:43.732Z,2.37
2023-03-29T11:23:43.165Z,2.28
2023-03-29T11:24:43.195Z,2.37
2023-03-29T11:25:43.229Z,2.76
2023-03-29T11:26:43.262Z,2.04
2023-03-29T11:27:43.297Z,2.07
2023-03-29T11:28:43.324Z,1.95
2023-03-29T11:29:43.361Z,2.09
2023-03-29T11:30:43.405Z,2.40
2023-03-29T11:31:43.479Z,2.17
2023-03-29T11:32:43.516Z,2.38
2023-03-29T11:33:43.492Z,2.18
2023-03-29T11:34:43.531Z,2.32
2023-03-29T11:35:43.597Z,2.12
2023-03-29T11:36:43.605Z,2.43
2023-03-29T11:37:43.641Z,2.23
2023-03-29T11:38:45.224Z,2.40
2023-03-29T11:39:43.725Z,2.53
2023-03-29T11:40:43.780Z,2.14
2023-03-29T11:41:43.833Z,1.80
2023-03-29T11:42:43.874Z,2.08
2023-03-29T11:43:43.908Z,2.25
2023-03-29T11:44:43.959Z,2.13
2023-03-29T11:45:44.006Z,1.89
2023-03-29T11:46:44.086Z,2.30
2023-03-29T11:47:44.181Z,2.54
2023-03-29T11:48:44.139Z,2.02
2023-03-29T11:49:44.278Z,2.45
2023-03-29T11:50:44.271Z,2.43
2023-03-29T11:51:44.294Z,2.60
2023-03-29T11:52:44.342Z,2.28
2023-03-29T11:53:44.388Z,1.72
2023-03-29T11:54:44.444Z,2.51
2023-03-29T11:55:44.510Z,2.60
2023-03-29T11:56:44.588Z,1.99
2023-03-29T11:57:44.608Z,1.89
2023-03-29T11:58:44.668Z,1.78
2023-03-29T11:59:44.733Z,2.15
2023-03-29T12:00:44.800Z,2.24
2023-03-29T12:01:44.872Z,2.02
2023-03-29T12:02:45.031Z,2.03
2023-03-29T12:03:46.898Z,1.88
2023-03-29T12:04:45.050Z,2.25
2023-03-29T12:05:45.108Z,2.00
2023-03-29T12:06:45.144Z,2.08
2023-03-29T12:07:45.211Z,2.22
2023-03-29T12:08:45.254Z,2.33
2023-03-29T12:09:45.310Z,1.58
2023-03-29T12:10:45.373Z,2.21
2023-03-29T12:11:45.422Z,2.84
2023-03-29T12:12:45.495Z,2.58
2023-03-29T12:13:45.544Z,1.88
2023-03-29T12:14:45.594Z,2.39
2023-03-29T12:15:45.664Z,2.11
2023-03-29T12:16:45.801Z,2.08
2023-03-29T12:17:45.821Z,2.29
2023-03-29T12:18:46.702Z,2.02
2023-03-29T12:19:45.898Z,2.05
2023-03-29T12:20:45.968Z,2.13
2023-03-29T12:21:46.007Z,2.26
2023-03-29T12:22:46.068Z,2.36
2023-03-29T12:23:46.127Z,2.63
2023-03-29T12:24:46.194Z,2.20
2023-03-29T12:25:46.252Z,1.77
2023-03-29T12:26:46.292Z,2.51
2023-03-29T12:27:46.367Z,2.12
2023-03-29T12:28:46.425Z,1.91
2023-03-29T12:29:46.523Z,2.04
2023-03-29T12:30:46.542Z,1.91
2023-03-29T12:31:46.639Z,1.78
2023-03-29T12:32:46.782Z,2.29
2023-03-29T12:33:46.718Z,2.12
2023-03-29T12:34:46.783Z,2.67
2023-03-29T12:35:46.859Z,2.84
2023-03-29T12:36:46.897Z,2.27
2023-03-29T12:37:46.974Z,2.43
2023-03-29T12:38:46.962Z,3.02
2023-03-29T12:39:46.983Z,2.42
2023-03-29T12:40:47.083Z,2.23
2023-03-29T12:41:47.029Z,2.40
2023-03-29T12:42:47.037Z,3.02
2023-03-29T12:43:47.083Z,2.78
2023-03-29T12:44:47.123Z,2.22
2023-03-29T12:45:47.231Z,2.63
2023-03-29T12:46:47.268Z,2.91
2023-03-29T12:47:47.369Z,2.29
2023-03-29T12:48:47.313Z,2.19
2023-03-29T12:49:47.374Z,2.15
2023-03-29T12:50:47.411Z,2.30
2023-03-29T12:51:47.438Z,2.21
2023-03-29T12:52:47.464Z,2.63
2023-03-29T12:53:47.505Z,2.67
2023-03-29T12:54:47.594Z,2.51
2023-03-29T12:55:47.644Z,2.64
2023-03-29T12:56:47.743Z,2.09
2023-03-29T12:57:47.687Z,4.37
2023-03-29T12:58:47.737Z,2.71
2023-03-29T12:59:47.791Z,2.51
2023-03-29T13:00:47.925Z,3.06
2023-03-29T13:01:47.998Z,2.42
2023-03-29T13:02:48.060Z,2.47
2023-03-29T13:03:48.016Z,2.52
2023-03-29T13:04:48.095Z,3.16
2023-03-29T13:05:48.139Z,2.46
2023-03-29T13:06:48.188Z,2.30
2023-03-29T13:07:48.263Z,2.75
2023-03-29T13:08:48.317Z,2.71
2023-03-29T13:09:48.379Z,2.52
2023-03-29T13:10:48.425Z,2.28
2023-03-29T13:11:48.489Z,2.89
2023-03-29T13:12:48.534Z,2.23
2023-03-29T13:13:48.599Z,2.09
2023-03-29T13:14:48.630Z,2.33
2023-03-29T13:15:48.741Z,2.40
2023-03-29T13:16:48.731Z,2.25
2023-03-29T13:17:48.800Z,2.14
2023-03-29T13:18:48.817Z,2.11